createdAt,value
2022-07-26T00:00:10.535Z,25.56
2022-07-26T00:02:38.692Z,25.53
2022-07-26T00:05:10.138Z,25.56
2022-07-26T00:07:38.295Z,25.56
2022-07-26T00:10:09.195Z,25.58
2022-07-26T00:12:37.604Z,25.53
2022-07-26T00:15:08.872Z,25.51
2022-07-26T00:17:37.132Z,25.48
2022-07-26T00:20:06.642Z,25.50
2022-07-26T00:22:35.001Z,25.50
2022-07-26T00:25:07.249Z,25.48
2022-07-26T00:27:38.152Z,25.51
2022-07-26T00:30:09.976Z,25.49
2022-07-26T00:32:38.665Z,25.47
2022-07-26T00:35:08.957Z,25.49
2022-07-26T00:37:37.205Z,25.54
2022-07-26T00:40:06.699Z,25.58
2022-07-26T00:42:38.795Z,25.59
2022-07-26T00:45:09.472Z,25.58
2022-07-26T00:47:37.867Z,25.51
2022-07-26T00:50:10.167Z,25.50
2022-07-26T00:52:38.328Z,25.52
2022-07-26T00:55:08.061Z,25.31
2022-07-26T00:57:39.385Z,25.40
2022-07-26T01:00:12.428Z,25.37
2022-07-26T01:02:41.074Z,25.35
2022-07-26T01:05:10.100Z,25.35
2022-07-26T01:07:39.341Z,25.33
2022-07-26T01:10:12.864Z,25.25
2022-07-26T01:12:43.245Z,25.17
2022-07-26T01:15:16.760Z,25.12
2022-07-26T01:17:45.327Z,25.07
2022-07-26T01:20:15.176Z,24.99
2022-07-26T01:22:44.710Z,24.88
2022-07-26T01:25:12.799Z,24.78
2022-07-26T01:27:41.105Z,24.72
2022-07-26T01:30:12.832Z,24.64
2022-07-26T01:32:41.151Z,24.60
2022-07-26T01:35:11.314Z,24.58
2022-07-26T01:37:39.739Z,24.54
2022-07-26T01:40:11.384Z,24.52
2022-07-26T01:42:40.893Z,24.48
2022-07-26T01:45:10.468Z,24.46
2022-07-26T01:47:39.243Z,24.41
2022-07-26T01:50:10.038Z,24.43
2022-07-26T01:52:39.279Z,24.37
2022-07-26T01:55:10.525Z,24.37
2022-07-26T01:57:38.676Z,24.31
2022-07-26T02:00:09.090Z,24.35
2022-07-26T02:02:37.372Z,24.32
2022-07-26T02:05:06.367Z,24.32
2022-07-26T02:07:41.687Z,24.36
2022-07-26T02:10:14.475Z,24.41
2022-07-26T02:12:42.798Z,24.35
2022-07-26T02:15:12.877Z,24.34
2022-07-26T02:17:41.079Z,24.28
2022-07-26T02:20:10.591Z,24.32
2022-07-26T02:22:38.626Z,24.29
2022-07-26T02:25:11.598Z,24.30
2022-07-26T02:27:40.991Z,24.31
2022-07-26T02:30:10.739Z,24.27
2022-07-26T02:32:43.735Z,24.27
2022-07-26T02:35:12.143Z,24.32
2022-07-26T02:37:43.882Z,24.28
2022-07-26T02:40:18.808Z,24.30
2022-07-26T02:42:48.849Z,24.25
2022-07-26T02:45:16.900Z,24.27
2022-07-26T02:47:49.312Z,24.28
2022-07-26T02:50:19.179Z,24.23
2022-07-26T02:52:48.792Z,24.23
2022-07-26T02:55:21.535Z,24.27
2022-07-26T02:57:51.105Z,24.21
2022-07-26T03:00:22.340Z,24.19
2022-07-26T03:02:51.321Z,24.21
2022-07-26T03:05:20.742Z,24.18
2022-07-26T03:07:49.268Z,24.07
2022-07-26T03:10:17.946Z,24.09
2022-07-26T03:12:46.188Z,24.10
2022-07-26T03:15:15.871Z,24.09
2022-07-26T03:17:44.042Z,24.03
2022-07-26T03:20:13.719Z,24.04
2022-07-26T03:22:41.894Z,23.96
2022-07-26T03:25:10.272Z,23.92
2022-07-26T03:27:38.507Z,23.88
2022-07-26T03:30:08.471Z,23.85
2022-07-26T03:32:37.951Z,23.79
2022-07-26T03:35:07.285Z,23.78
2022-07-26T03:37:46.296Z,23.78
2022-07-26T03:40:16.390Z,23.75
2022-07-26T03:42:45.342Z,23.69
2022-07-26T03:45:14.149Z,23.64
2022-07-26T03:47:45.216Z,23.64
2022-07-26T03:50:13.875Z,23.65
2022-07-26T03:52:42.624Z,23.62
2022-07-26T03:55:30.493Z,23.60
2022-07-26T03:57:59.052Z,23.54
2022-07-26T04:00:27.785Z,23.55
2022-07-26T04:03:00.262Z,23.57
2022-07-26T04:05:34.690Z,23.52
2022-07-26T04:08:04.764Z,23.52
2022-07-26T04:10:33.154Z,23.52
2022-07-26T04:13:01.179Z,23.51
2022-07-26T04:15:29.279Z,23.41
2022-07-26T04:17:58.688Z,23.36
2022-07-26T04:20:26.750Z,23.35
2022-07-26T04:22:54.917Z,23.34
2022-07-26T04:25:23.257Z,23.32
2022-07-26T04:27:51.350Z,23.31
2022-07-26T04:30:19.568Z,23.32
2022-07-26T04:32:47.670Z,23.35
2022-07-26T04:35:17.612Z,23.31
2022-07-26T04:37:47.478Z,23.24
2022-07-26T04:40:21.146Z,23.26
2022-07-26T04:42:50.576Z,23.22
2022-07-26T04:45:19.301Z,23.22
2022-07-26T04:47:50.245Z,23.23
2022-07-26T04:50:23.005Z,23.21
2022-07-26T04:52:52.580Z,23.16
2022-07-26T04:55:21.159Z,23.17
2022-07-26T04:57:50.294Z,23.17
2022-07-26T05:00:24.785Z,23.95
2022-07-26T05:02:56.282Z,23.47
2022-07-26T05:05:27.772Z,23.37
2022-07-26T05:07:59.167Z,23.37
2022-07-26T05:10:32.241Z,23.35
2022-07-26T05:13:00.449Z,23.33
2022-07-26T05:15:35.287Z,23.35
2022-07-26T05:18:07.103Z,23.41
2022-07-26T05:20:38.833Z,23.39
2022-07-26T05:23:08.341Z,23.44
2022-07-26T05:25:36.618Z,23.38
2022-07-26T05:28:06.375Z,23.37
2022-07-26T05:30:34.507Z,23.35
2022-07-26T05:33:03.023Z,23.35
2022-07-26T05:35:31.452Z,23.32
2022-07-26T05:38:01.520Z,23.37
2022-07-26T05:40:29.815Z,23.37
2022-07-26T05:42:57.983Z,23.44
2022-07-26T05:45:26.091Z,23.49
2022-07-26T05:47:56.294Z,23.50
2022-07-26T05:50:24.434Z,23.53
2022-07-26T05:52:52.503Z,23.47
2022-07-26T05:55:23.422Z,23.58
2022-07-26T05:57:51.754Z,23.62
2022-07-26T06:00:20.797Z,23.66
2022-07-26T06:02:48.883Z,23.70
2022-07-26T06:05:17.503Z,23.74
2022-07-26T06:07:45.528Z,23.74
2022-07-26T06:10:13.587Z,23.77
2022-07-26T06:12:43.128Z,23.85
2022-07-26T06:17:44.636Z,23.88
2022-07-26T06:20:13.244Z,23.82
2022-07-26T06:22:41.613Z,23.85
2022-07-26T06:25:10.517Z,23.90
2022-07-26T06:27:38.774Z,23.88
2022-07-26T06:30:10.351Z,23.97
2022-07-26T06:32:38.507Z,24.00
2022-07-26T06:35:07.589Z,24.01
2022-07-26T06:37:37.959Z,24.08
2022-07-26T06:40:08.618Z,24.12
2022-07-26T06:42:37.146Z,24.19
2022-07-26T06:45:08.785Z,24.20
2022-07-26T06:47:36.876Z,24.22
2022-07-26T06:50:06.164Z,24.24
2022-07-26T06:52:34.303Z,24.22
2022-07-26T06:55:03.544Z,24.32
2022-07-26T06:57:31.614Z,24.33
2022-07-26T06:59:59.699Z,24.45
2022-07-26T07:02:29.172Z,24.61
2022-07-26T07:04:57.285Z,24.75
2022-07-26T07:07:25.365Z,24.94
2022-07-26T07:09:56.682Z,25.05
2022-07-26T07:12:24.739Z,25.03
2022-07-26T07:14:52.913Z,25.02
2022-07-26T07:17:23.575Z,25.08
2022-07-26T07:19:52.979Z,25.09
2022-07-26T07:22:21.213Z,25.20
2022-07-26T07:24:49.248Z,25.21
2022-07-26T07:27:17.526Z,25.21
2022-07-26T07:29:45.780Z,25.30
2022-07-26T07:32:18.139Z,25.27
2022-07-26T07:34:48.410Z,25.27
2022-07-26T07:37:20.247Z,25.35
2022-07-26T07:39:48.895Z,25.22
2022-07-26T07:42:19.716Z,25.22
2022-07-26T07:44:47.969Z,25.28
2022-07-26T07:47:16.423Z,25.35
2022-07-26T07:49:44.697Z,25.43
2022-07-26T07:52:12.787Z,25.46
2022-07-26T07:54:42.363Z,25.50
2022-07-26T07:57:10.630Z,25.54
2022-07-26T07:59:39.508Z,25.60
2022-07-26T08:02:09.271Z,25.58
2022-07-26T08:04:37.430Z,25.58
2022-07-26T08:07:06.614Z,25.69
2022-07-26T08:09:34.761Z,25.74
2022-07-26T08:12:04.682Z,25.73
2022-07-26T08:14:33.594Z,25.82
2022-07-26T08:17:02.217Z,25.89
2022-07-26T08:19:41.860Z,25.94
2022-07-26T08:22:11.010Z,25.90
2022-07-26T08:24:39.149Z,26.00
2022-07-26T08:27:08.697Z,26.03
2022-07-26T08:29:36.868Z,26.06
2022-07-26T08:32:30.150Z,26.04
2022-07-26T08:35:17.008Z,26.10
2022-07-26T08:37:47.108Z,26.13
2022-07-26T08:40:17.050Z,26.19
2022-07-26T08:42:52.840Z,26.21
2022-07-26T08:45:23.722Z,26.29
2022-07-26T08:48:16.018Z,26.31
2022-07-26T08:50:41.482Z,26.39
2022-07-26T08:53:12.854Z,26.49
2022-07-26T08:58:32.831Z,26.64
2022-07-26T09:01:09.616Z,26.69
2022-07-26T09:03:38.603Z,26.72
2022-07-26T09:06:15.763Z,26.57
2022-07-26T09:08:45.580Z,26.70
2022-07-26T09:11:33.871Z,26.80
2022-07-26T09:14:06.195Z,26.94
2022-07-26T09:16:39.304Z,26.90
2022-07-26T09:19:22.230Z,26.81
2022-07-26T09:21:51.564Z,26.67
2022-07-26T09:24:33.641Z,26.77
2022-07-26T09:27:04.391Z,26.94
2022-07-26T09:29:45.095Z,27.07
2022-07-26T09:32:19.532Z,26.97
2022-07-26T09:34:53.421Z,26.92
2022-07-26T09:37:36.346Z,26.91
2022-07-26T09:40:08.463Z,27.01
2022-07-26T09:42:37.476Z,27.09
2022-07-26T09:45:17.675Z,27.00
2022-07-26T09:47:45.734Z,26.86
2022-07-26T09:50:17.700Z,26.75
2022-07-26T09:53:01.291Z,26.82
2022-07-26T09:55:39.316Z,26.77
2022-07-26T09:58:14.377Z,26.85
2022-07-26T10:00:45.000Z,26.92
2022-07-26T10:03:13.563Z,26.80
2022-07-26T10:05:42.410Z,26.82
2022-07-26T10:08:11.103Z,27.01
2022-07-26T10:10:44.916Z,27.05
2022-07-26T10:13:13.251Z,27.12
2022-07-26T10:15:46.702Z,27.07
2022-07-26T10:18:51.130Z,26.96
2022-07-26T10:21:25.163Z,26.98
2022-07-26T10:23:56.750Z,26.90
2022-07-26T10:26:45.408Z,26.91
2022-07-26T10:29:28.767Z,27.08
2022-07-26T10:32:20.165Z,27.23
2022-07-26T10:34:48.873Z,27.29
2022-07-26T10:37:29.525Z,27.48
2022-07-26T10:40:19.272Z,27.42
2022-07-26T10:42:47.749Z,27.48
2022-07-26T10:45:23.677Z,27.59
2022-07-26T10:48:17.113Z,27.58
2022-07-26T10:50:48.658Z,27.54
2022-07-26T10:53:23.444Z,27.53
2022-07-26T10:55:54.254Z,27.50
2022-07-26T10:58:23.546Z,27.50
2022-07-26T11:01:01.612Z,27.53
2022-07-26T11:03:42.599Z,27.41
2022-07-26T11:06:13.394Z,27.24
2022-07-26T11:08:45.975Z,27.21
2022-07-26T11:11:29.684Z,27.29
2022-07-26T11:14:07.750Z,27.44
2022-07-26T11:16:40.973Z,27.59
2022-07-26T11:19:18.995Z,27.67
2022-07-26T11:21:53.638Z,27.83
2022-07-26T11:24:21.988Z,27.66
2022-07-26T11:26:50.324Z,27.52
2022-07-26T11:29:38.061Z,27.51
2022-07-26T11:32:17.718Z,27.62
2022-07-26T11:34:47.881Z,27.73
2022-07-26T11:37:16.070Z,27.86
2022-07-26T11:39:44.196Z,27.88
2022-07-26T11:42:16.149Z,27.96
2022-07-26T11:44:46.476Z,28.00
2022-07-26T11:47:18.981Z,28.06
2022-07-26T11:50:00.865Z,28.15
2022-07-26T11:52:37.598Z,28.22
2022-07-26T11:55:07.325Z,28.31
2022-07-26T11:57:35.429Z,28.34
2022-07-26T12:00:04.585Z,28.32
2022-07-26T12:02:41.850Z,28.25
2022-07-26T12:05:20.565Z,28.42
2022-07-26T12:07:58.783Z,28.46
2022-07-26T12:10:28.150Z,28.55
2022-07-26T12:13:11.781Z,28.67
2022-07-26T12:15:52.613Z,28.57
2022-07-26T12:18:29.428Z,28.53
2022-07-26T12:21:05.201Z,28.53
2022-07-26T12:23:46.177Z,28.63
2022-07-26T12:26:26.185Z,28.62
2022-07-26T12:28:55.409Z,28.62
2022-07-26T12:31:26.133Z,28.68
2022-07-26T12:33:54.602Z,28.67
2022-07-26T12:36:28.035Z,28.71
2022-07-26T12:38:58.330Z,28.81
2022-07-26T12:41:34.895Z,28.82
2022-07-26T12:44:03.299Z,28.78
2022-07-26T12:46:34.428Z,28.68
2022-07-26T12:49:02.938Z,28.53
2022-07-26T12:51:32.455Z,28.43
2022-07-26T12:54:00.595Z,28.47
2022-07-26T12:56:28.667Z,28.42
2022-07-26T12:59:01.100Z,28.47
2022-07-26T13:01:30.440Z,28.33
2022-07-26T13:03:58.889Z,28.14
2022-07-26T13:06:27.167Z,28.16
2022-07-26T13:08:56.945Z,28.26
2022-07-26T13:11:25.289Z,28.24
2022-07-26T13:13:53.433Z,28.40
2022-07-26T13:16:21.526Z,28.44
2022-07-26T13:18:49.783Z,28.57
2022-07-26T13:21:17.911Z,28.56
2022-07-26T13:23:46.053Z,28.70
2022-07-26T13:26:15.528Z,28.46
2022-07-26T13:28:44.499Z,28.41
2022-07-26T13:31:18.427Z,28.49
2022-07-26T13:33:46.872Z,28.55
2022-07-26T13:36:14.922Z,28.57
2022-07-26T13:38:43.081Z,28.62
2022-07-26T13:41:11.265Z,28.70
2022-07-26T13:43:40.977Z,28.73
2022-07-26T13:46:09.200Z,28.63
2022-07-26T13:48:37.347Z,28.57
2022-07-26T13:51:06.259Z,28.61
2022-07-26T13:53:36.275Z,28.63
2022-07-26T13:56:20.498Z,28.65
2022-07-26T13:58:50.009Z,28.74
2022-07-26T14:01:18.149Z,28.70
2022-07-26T14:03:46.277Z,28.74
2022-07-26T14:06:14.366Z,28.72
2022-07-26T14:08:42.732Z,28.78
2022-07-26T14:11:12.294Z,28.86
2022-07-26T14:13:40.913Z,28.80
2022-07-26T14:16:11.780Z,28.82
2022-07-26T14:18:39.962Z,28.92
2022-07-26T14:21:10.719Z,28.91
2022-07-26T14:23:39.845Z,28.92
2022-07-26T14:26:08.134Z,28.83
2022-07-26T14:28:36.437Z,28.83
2022-07-26T14:31:04.775Z,28.61
2022-07-26T14:33:34.412Z,28.58
2022-07-26T14:36:02.989Z,28.38
2022-07-26T14:38:31.051Z,28.43
2022-07-26T14:41:01.073Z,28.60
2022-07-26T14:43:29.236Z,28.68
2022-07-26T14:45:57.689Z,28.60
2022-07-26T14:48:51.911Z,28.65
2022-07-26T14:51:15.523Z,28.64
2022-07-26T14:53:43.799Z,28.62
2022-07-26T14:56:12.197Z,28.64
2022-07-26T14:58:40.542Z,28.67
2022-07-26T15:01:09.316Z,28.51
2022-07-26T15:03:37.477Z,28.41
2022-07-26T15:06:05.915Z,28.28
2022-07-26T15:08:35.471Z,28.26
2022-07-26T15:11:05.404Z,28.19
2022-07-26T15:13:33.656Z,28.24
2022-07-26T15:16:02.009Z,28.16
2022-07-26T15:18:30.200Z,28.06
2022-07-26T15:20:58.433Z,28.14
2022-07-26T15:23:27.277Z,28.17
2022-07-26T15:25:56.718Z,28.17
2022-07-26T15:28:25.081Z,27.99
2022-07-26T15:30:53.626Z,27.91
2022-07-26T15:33:21.693Z,27.85
2022-07-26T15:35:50.670Z,27.82
2022-07-26T15:38:18.680Z,27.81
2022-07-26T15:40:46.780Z,27.88
2022-07-26T15:43:22.802Z,27.90
2022-07-26T15:46:10.981Z,27.90
2022-07-26T15:48:39.125Z,27.92
2022-07-26T15:51:07.351Z,27.91
2022-07-26T15:53:35.568Z,27.93
2022-07-26T15:56:03.688Z,27.82
2022-07-26T15:58:33.176Z,27.75
2022-07-26T16:01:01.315Z,27.73
2022-07-26T16:03:29.510Z,27.81
2022-07-26T16:05:59.625Z,27.86
2022-07-26T16:08:30.822Z,27.79
2022-07-26T16:10:58.944Z,27.83
2022-07-26T16:13:27.048Z,27.84
2022-07-26T16:15:56.564Z,27.72
2022-07-26T16:18:24.624Z,27.67
2022-07-26T16:20:52.765Z,27.65
2022-07-26T16:23:20.860Z,27.65
2022-07-26T16:25:49.027Z,27.61
2022-07-26T16:28:17.071Z,27.60
2022-07-26T16:30:45.283Z,27.63
2022-07-26T16:33:14.762Z,27.68
2022-07-26T16:35:43.031Z,27.83
2022-07-26T16:38:12.014Z,27.81
2022-07-26T16:40:40.103Z,27.66
2022-07-26T16:43:08.627Z,27.67
2022-07-26T16:45:37.697Z,27.62
2022-07-26T16:48:07.023Z,27.62
2022-07-26T16:50:36.759Z,27.60
2022-07-26T16:53:04.985Z,27.54
2022-07-26T16:55:33.090Z,27.57
2022-07-26T16:58:01.141Z,27.52
2022-07-26T17:00:29.473Z,27.54
2022-07-26T17:02:57.524Z,27.54
2022-07-26T17:05:25.626Z,27.57
2022-07-26T17:07:55.053Z,27.61
2022-07-26T17:10:26.630Z,27.57
2022-07-26T17:12:54.744Z,27.53
2022-07-26T17:15:22.947Z,27.53
2022-07-26T17:17:50.993Z,27.55
2022-07-26T17:20:19.829Z,27.56
2022-07-26T17:22:48.072Z,27.51
2022-07-26T17:25:17.484Z,27.51
2022-07-26T17:27:45.927Z,27.47
2022-07-26T17:30:14.491Z,27.46
2022-07-26T17:32:42.633Z,27.43
2022-07-26T17:35:10.861Z,27.39
2022-07-26T17:37:40.025Z,27.36
2022-07-26T17:40:10.494Z,27.33
2022-07-26T17:42:40.559Z,27.36
2022-07-26T17:45:10.339Z,27.29
2022-07-26T17:47:38.437Z,27.17
2022-07-26T17:50:34.697Z,27.15
2022-07-26T17:52:57.292Z,27.09
2022-07-26T17:55:25.502Z,27.08
2022-07-26T17:57:55.059Z,27.06
2022-07-26T18:00:28.590Z,27.02
2022-07-26T18:02:57.980Z,27.05
2022-07-26T18:05:33.328Z,26.96
2022-07-26T18:08:02.615Z,26.94
2022-07-26T18:10:30.808Z,26.87
2022-07-26T18:13:00.328Z,26.90
2022-07-26T18:15:28.848Z,26.82
2022-07-26T18:17:57.176Z,26.76
2022-07-26T18:20:27.218Z,26.75
2022-07-26T18:22:55.468Z,26.70
2022-07-26T18:25:23.673Z,26.67
2022-07-26T18:27:53.814Z,26.66
2022-07-26T18:30:23.447Z,26.66
2022-07-26T18:32:52.026Z,26.55
2022-07-26T18:35:20.311Z,26.50
2022-07-26T18:37:50.388Z,26.45
2022-07-26T18:40:18.440Z,26.41
2022-07-26T18:42:46.515Z,26.34
2022-07-26T18:45:15.076Z,26.31
2022-07-26T18:47:45.017Z,26.27
2022-07-26T18:50:17.206Z,26.24
2022-07-26T18:52:45.664Z,26.21
2022-07-26T18:55:16.057Z,26.19
2022-07-26T18:57:45.358Z,26.16
2022-07-26T19:00:17.837Z,26.11
2022-07-26T19:02:51.491Z,26.06
2022-07-26T19:05:22.592Z,26.03
2022-07-26T19:07:51.650Z,25.98
2022-07-26T19:10:20.966Z,25.93
2022-07-26T19:12:54.413Z,25.85
2022-07-26T19:15:23.043Z,25.81
2022-07-26T19:17:52.638Z,25.75
2022-07-26T19:20:20.826Z,25.69
2022-07-26T19:22:50.945Z,25.68
2022-07-26T19:25:19.617Z,25.64
2022-07-26T19:27:47.882Z,25.58
2022-07-26T19:30:15.923Z,25.55
2022-07-26T19:32:44.032Z,25.49
2022-07-26T19:35:13.465Z,25.46
2022-07-26T19:37:41.771Z,25.42
2022-07-26T19:40:11.320Z,25.42
2022-07-26T19:42:39.423Z,25.39
2022-07-26T19:45:08.745Z,25.37
2022-07-26T19:47:38.635Z,25.33
2022-07-26T19:50:09.477Z,25.32
2022-07-26T19:52:39.207Z,25.29
2022-07-26T19:55:08.763Z,25.25
2022-07-26T19:57:37.665Z,25.21
2022-07-26T20:00:08.057Z,25.16
2022-07-26T20:02:42.463Z,25.08
2022-07-26T20:05:11.818Z,25.06
2022-07-26T20:07:41.387Z,25.06
2022-07-26T20:10:10.396Z,25.02
2022-07-26T20:12:38.845Z,24.99
2022-07-26T20:15:09.092Z,24.95
2022-07-26T20:17:39.652Z,24.93
2022-07-26T20:20:09.981Z,24.89
2022-07-26T20:22:38.264Z,24.86
2022-07-26T20:25:09.497Z,24.84
2022-07-26T20:27:37.591Z,24.77
2022-07-26T20:30:08.009Z,24.76
2022-07-26T20:32:36.230Z,24.73
2022-07-26T20:35:04.978Z,24.67
2022-07-26T20:37:33.200Z,24.63
2022-07-26T20:40:01.530Z,24.56
2022-07-26T20:42:30.919Z,24.51
2022-07-26T20:45:00.931Z,24.46
2022-07-26T20:47:29.119Z,24.39
2022-07-26T20:50:02.673Z,24.32
2022-07-26T20:52:31.291Z,24.26
2022-07-26T20:55:00.401Z,24.22
2022-07-26T20:57:29.970Z,24.17
2022-07-26T20:59:58.177Z,24.13
2022-07-26T21:02:26.363Z,24.07
2022-07-26T21:04:54.520Z,24.05
2022-07-26T21:07:24.108Z,24.00
2022-07-26T21:10:13.438Z,23.97
2022-07-26T21:12:42.943Z,23.95
2022-07-26T21:15:12.035Z,23.91
2022-07-26T21:17:40.217Z,23.88
2022-07-26T21:20:09.359Z,23.85
2022-07-26T21:22:37.449Z,23.82
2022-07-26T21:25:07.668Z,23.77
2022-07-26T21:27:35.964Z,23.73
2022-07-26T21:30:07.012Z,23.70
2022-07-26T21:32:35.347Z,23.65
2022-07-26T21:35:03.771Z,23.65
2022-07-26T21:37:32.057Z,23.70
2022-07-26T21:40:00.947Z,23.67
2022-07-26T21:42:29.649Z,23.66
2022-07-26T21:44:58.006Z,23.66
2022-07-26T21:47:27.674Z,23.66
2022-07-26T21:49:55.919Z,23.63
2022-07-26T21:52:24.231Z,23.61
2022-07-26T21:54:52.503Z,23.62
2022-07-26T21:57:21.014Z,23.61
2022-07-26T21:59:49.415Z,23.57
2022-07-26T22:02:20.096Z,23.55
2022-07-26T22:04:51.551Z,23.50
2022-07-26T22:07:19.853Z,23.44
2022-07-26T22:09:48.138Z,23.43
2022-07-26T22:12:16.397Z,23.39
2022-07-26T22:14:44.637Z,23.36
2022-07-26T22:17:12.814Z,23.33
2022-07-26T22:19:40.896Z,23.30
2022-07-26T22:22:10.327Z,23.32
2022-07-26T22:24:38.453Z,23.36
2022-07-26T22:27:06.953Z,23.33
2022-07-26T22:29:39.759Z,23.29
2022-07-26T22:32:08.494Z,23.31
2022-07-26T22:34:36.648Z,23.25
2022-07-26T22:37:04.705Z,23.24
2022-07-26T22:39:34.117Z,23.22
2022-07-26T22:42:17.435Z,23.14
2022-07-26T22:44:45.667Z,23.08
2022-07-26T22:47:13.799Z,23.12
2022-07-26T22:49:41.962Z,23.10
2022-07-26T22:52:10.237Z,23.08
2022-07-26T22:54:39.816Z,23.11
2022-07-26T22:57:07.894Z,23.10
2022-07-26T22:59:36.958Z,23.06
2022-07-26T23:02:05.425Z,23.08
2022-07-26T23:04:33.568Z,23.12
2022-07-26T23:07:02.349Z,23.10
2022-07-26T23:09:32.687Z,23.13
2022-07-26T23:12:02.342Z,23.14
2022-07-26T23:14:30.466Z,23.16
2022-07-26T23:16:59.726Z,23.16
2022-07-26T23:19:27.817Z,23.18
2022-07-26T23:21:55.896Z,23.21
2022-07-26T23:24:23.990Z,23.15
2022-07-26T23:26:52.136Z,23.13
2022-07-26T23:29:21.624Z,23.15
2022-07-26T23:31:49.782Z,23.18
2022-07-26T23:34:17.904Z,23.29
2022-07-26T23:36:46.553Z,23.31
2022-07-26T23:39:14.926Z,23.31
2022-07-26T23:41:43.131Z,23.35
2022-07-26T23:44:11.215Z,23.30
2022-07-26T23:46:40.749Z,23.34
2022-07-26T23:49:09.272Z,23.34
2022-07-26T23:51:38.816Z,23.35
2022-07-26T23:54:06.967Z,23.31
2022-07-26T23:56:35.100Z,23.30
2022-07-26T23:59:03.728Z,23.32
